createdAt,value
2022-10-23T00:01:29.067Z,6.10
2022-10-23T00:04:02.025Z,7.25
2022-10-23T00:06:30.348Z,7.68
2022-10-23T00:08:58.123Z,6.93
2022-10-23T00:11:28.539Z,7.85
2022-10-23T00:13:58.377Z,8.13
2022-10-23T00:16:26.801Z,7.05
2022-10-23T00:18:54.388Z,8.07
2022-10-23T00:21:22.033Z,6.35
2022-10-23T00:23:51.258Z,4.93
2022-10-23T00:26:18.838Z,6.87
2022-10-23T00:28:49.275Z,7.18
2022-10-23T00:31:17.904Z,6.62
2022-10-23T00:33:45.665Z,7.70
2022-10-23T00:36:14.842Z,5.82
2022-10-23T00:38:44.334Z,5.60
2022-10-23T00:41:38.036Z,4.65
2022-10-23T00:44:09.246Z,5.80
2022-10-23T00:46:38.075Z,6.80
2022-10-23T00:49:07.511Z,8.10
2022-10-23T00:51:45.310Z,7.12
2022-10-23T00:54:29.681Z,6.07
2022-10-23T00:56:59.597Z,6.75
2022-10-23T00:59:27.650Z,6.40
2022-10-23T01:01:55.463Z,6.05
2022-10-23T01:04:24.195Z,6.60
2022-10-23T01:07:22.265Z,6.43
2022-10-23T01:10:04.111Z,4.95
2022-10-23T01:12:45.802Z,7.20
2022-10-23T01:15:22.256Z,7.93
2022-10-23T01:18:04.523Z,5.87
2022-10-23T01:20:40.005Z,7.40
2022-10-23T01:23:11.544Z,6.03
2022-10-23T01:25:58.309Z,6.32
2022-10-23T01:28:30.812Z,6.53
2022-10-23T01:30:59.973Z,4.28
2022-10-23T01:33:39.544Z,5.78
2022-10-23T01:36:12.795Z,6.97
2022-10-23T01:38:45.963Z,7.20
2022-10-23T01:41:18.357Z,5.37
2022-10-23T01:43:53.678Z,6.00
2022-10-23T01:48:52.948Z,7.43
2022-10-23T01:51:22.409Z,7.07
2022-10-23T01:53:51.245Z,5.37
2022-10-23T01:56:31.922Z,8.35
2022-10-23T01:59:03.958Z,6.32
2022-10-23T02:01:33.309Z,5.55
2022-10-23T02:04:03.684Z,5.60
2022-10-23T02:06:31.800Z,5.93
2022-10-23T02:08:59.279Z,5.32
2022-10-23T02:11:27.630Z,6.60
2022-10-23T02:14:24.706Z,5.25
2022-10-23T02:16:59.215Z,5.72
2022-10-23T02:19:50.941Z,6.15
2022-10-23T02:22:37.823Z,6.43
2022-10-23T02:25:11.627Z,6.50
2022-10-23T02:27:48.074Z,6.80
2022-10-23T02:30:18.090Z,4.78
2022-10-23T02:32:50.317Z,8.07
2022-10-23T02:35:19.904Z,6.32
2022-10-23T02:37:58.927Z,6.35
2022-10-23T02:40:32.284Z,6.07
2022-10-23T02:43:14.532Z,5.22
2022-10-23T02:46:02.767Z,5.82
2022-10-23T02:48:40.112Z,6.93
2022-10-23T02:51:15.333Z,6.25
2022-10-23T02:56:36.654Z,6.05
2022-10-23T02:59:15.667Z,6.97
2022-10-23T03:01:52.115Z,5.85
2022-10-23T03:04:24.172Z,6.03
2022-10-23T03:06:51.848Z,5.18
2022-10-23T03:09:19.337Z,5.10
2022-10-23T03:11:47.021Z,6.15
2022-10-23T03:14:14.635Z,7.22
2022-10-23T03:16:42.049Z,4.35
2022-10-23T03:21:41.220Z,6.62
2022-10-23T03:24:09.186Z,6.28
2022-10-23T03:26:37.893Z,5.35
2022-10-23T03:29:05.587Z,5.62
2022-10-23T03:31:36.305Z,5.10
2022-10-23T03:34:09.986Z,7.18
2022-10-23T03:36:38.500Z,5.62
2022-10-23T03:39:06.370Z,5.53
2022-10-23T03:41:33.829Z,7.05
2022-10-23T03:44:01.351Z,5.12
2022-10-23T03:46:29.144Z,6.15
2022-10-23T03:48:59.645Z,7.18
2022-10-23T03:51:27.150Z,6.75
2022-10-23T03:53:55.006Z,7.07
2022-10-23T03:56:22.752Z,7.45
2022-10-23T03:58:50.182Z,7.22
2022-10-23T04:01:17.967Z,6.60
2022-10-23T04:03:45.748Z,7.18
2022-10-23T04:06:13.274Z,7.12
2022-10-23T04:08:43.272Z,6.43
2022-10-23T04:11:11.942Z,5.80
2022-10-23T04:13:40.391Z,7.20
2022-10-23T04:16:08.026Z,7.07
2022-10-23T04:18:35.740Z,7.00
2022-10-23T04:21:03.670Z,4.90
2022-10-23T04:23:31.092Z,6.07
2022-10-23T04:25:58.960Z,6.68
2022-10-23T04:28:26.847Z,4.82
2022-10-23T04:30:54.342Z,5.12
2022-10-23T04:33:22.162Z,6.85
2022-10-23T04:35:49.826Z,4.50
2022-10-23T04:38:17.423Z,4.20
2022-10-23T04:40:45.152Z,5.60
2022-10-23T04:43:12.790Z,4.20
2022-10-23T04:45:40.422Z,4.37
2022-10-23T04:48:09.473Z,4.25
2022-10-23T04:50:38.607Z,4.75
2022-10-23T04:53:06.120Z,5.93
2022-10-23T04:55:34.424Z,3.55
2022-10-23T04:58:04.670Z,5.47
2022-10-23T05:00:32.726Z,4.15
2022-10-23T05:03:01.402Z,5.28
2022-10-23T05:05:30.311Z,4.57
2022-10-23T05:07:57.861Z,4.82
2022-10-23T05:10:26.459Z,4.90
2022-10-23T05:12:54.490Z,4.70
2022-10-23T05:15:21.965Z,5.18
2022-10-23T05:17:54.187Z,4.12
2022-10-23T05:20:23.618Z,6.18
2022-10-23T05:22:52.624Z,4.70
2022-10-23T05:25:20.861Z,5.45
2022-10-23T05:27:48.645Z,4.30
2022-10-23T05:30:16.718Z,4.35
2022-10-23T05:32:44.721Z,5.28
2022-10-23T05:35:16.462Z,3.47
2022-10-23T05:37:48.283Z,4.10
2022-10-23T05:40:18.028Z,5.55
2022-10-23T05:42:48.658Z,5.32
2022-10-23T05:45:16.579Z,4.85
2022-10-23T05:47:45.247Z,5.25
2022-10-23T05:50:13.267Z,4.22
2022-10-23T05:52:47.503Z,3.67
2022-10-23T05:55:16.652Z,6.68
2022-10-23T05:57:45.092Z,2.83
2022-10-23T06:00:13.812Z,4.87
2022-10-23T06:02:41.414Z,3.90
2022-10-23T06:05:10.047Z,5.57
2022-10-23T06:07:39.361Z,4.70
2022-10-23T06:10:07.312Z,4.72
2022-10-23T06:12:35.095Z,5.40
2022-10-23T06:15:02.580Z,4.30
2022-10-23T06:17:31.979Z,5.12
2022-10-23T06:20:02.511Z,5.37
2022-10-23T06:22:30.802Z,6.50
2022-10-23T06:24:59.927Z,7.15
2022-10-23T06:27:27.952Z,5.70
2022-10-23T06:29:55.876Z,4.72
2022-10-23T06:32:23.275Z,5.50
2022-10-23T06:34:53.183Z,4.97
2022-10-23T06:37:21.651Z,5.32
2022-10-23T06:39:49.816Z,5.28
2022-10-23T06:42:17.602Z,5.15
2022-10-23T06:44:48.412Z,5.57
2022-10-23T06:49:54.662Z,4.97
2022-10-23T06:52:42.079Z,4.20
2022-10-23T06:55:11.371Z,5.00
2022-10-23T06:57:38.928Z,7.82
2022-10-23T07:00:07.241Z,7.25
2022-10-23T07:02:36.706Z,6.57
2022-10-23T07:05:06.757Z,4.82
2022-10-23T07:07:36.898Z,5.22
2022-10-23T07:10:05.261Z,5.60
2022-10-23T07:12:34.323Z,5.25
2022-10-23T07:15:05.538Z,6.45
2022-10-23T07:17:34.086Z,5.80
2022-10-23T07:20:01.636Z,6.12
2022-10-23T07:22:29.432Z,5.87
2022-10-23T07:25:00.960Z,4.78
2022-10-23T07:27:29.090Z,4.22
2022-10-23T07:29:56.714Z,5.28
2022-10-23T07:32:24.750Z,6.70
2022-10-23T07:34:55.294Z,4.90
2022-10-23T07:37:23.482Z,6.35
2022-10-23T07:39:51.317Z,4.97
2022-10-23T07:42:19.034Z,5.37
2022-10-23T07:44:46.747Z,5.45
2022-10-23T07:47:14.195Z,7.35
2022-10-23T07:49:42.738Z,5.65
2022-10-23T07:52:10.316Z,6.40
2022-10-23T07:54:38.907Z,5.45
2022-10-23T07:57:07.780Z,5.62
2022-10-23T07:59:37.900Z,5.80
2022-10-23T08:02:11.850Z,4.35
2022-10-23T08:04:40.118Z,5.68
2022-10-23T08:07:08.098Z,5.70
2022-10-23T08:09:38.081Z,4.12
2022-10-23T08:12:06.189Z,3.92
2022-10-23T08:14:33.718Z,4.43
2022-10-23T08:19:31.964Z,3.53
2022-10-23T08:21:59.525Z,5.80
2022-10-23T08:24:27.043Z,3.20
2022-10-23T08:26:54.829Z,5.03
2022-10-23T08:29:23.123Z,4.40
2022-10-23T08:31:53.727Z,3.33
2022-10-23T08:34:22.306Z,4.12
2022-10-23T08:36:50.533Z,4.07
2022-10-23T08:39:18.387Z,3.97
2022-10-23T08:41:51.581Z,4.03
2022-10-23T08:44:22.783Z,5.28
2022-10-23T08:47:02.936Z,5.72
2022-10-23T08:49:49.278Z,4.30
2022-10-23T08:52:30.376Z,4.12
2022-10-23T08:55:13.026Z,5.82
2022-10-23T08:57:47.432Z,4.70
2022-10-23T09:00:16.701Z,4.55
2022-10-23T09:02:50.842Z,5.05
2022-10-23T09:05:19.771Z,4.90
2022-10-23T09:08:12.907Z,5.62
2022-10-23T09:11:30.674Z,5.72
2022-10-23T09:14:26.756Z,6.45
2022-10-23T09:17:18.947Z,5.57
2022-10-23T09:19:46.802Z,5.60
2022-10-23T09:22:14.388Z,6.72
2022-10-23T09:24:44.880Z,6.18
2022-10-23T09:27:17.045Z,7.68
2022-10-23T09:29:53.770Z,7.20
2022-10-23T09:32:33.621Z,6.22
2022-10-23T09:35:01.149Z,6.93
2022-10-23T09:37:30.909Z,5.78
2022-10-23T09:40:19.200Z,5.03
2022-10-23T09:42:55.838Z,5.30
2022-10-23T09:45:26.047Z,6.10
2022-10-23T09:48:19.451Z,5.70
2022-10-23T09:51:01.323Z,5.60
2022-10-23T09:53:40.594Z,4.90
2022-10-23T09:56:25.604Z,4.40
2022-10-23T09:58:57.064Z,4.75
2022-10-23T10:01:30.703Z,4.68
2022-10-23T10:04:00.466Z,4.47
2022-10-23T10:06:30.505Z,4.60
2022-10-23T10:09:05.250Z,4.72
2022-10-23T10:11:39.228Z,4.87
2022-10-23T10:14:12.513Z,5.72
2022-10-23T10:16:58.466Z,4.37
2022-10-23T10:19:28.868Z,5.35
2022-10-23T10:22:09.609Z,4.72
2022-10-23T10:25:23.234Z,4.55
2022-10-23T10:28:13.716Z,5.47
2022-10-23T10:30:52.013Z,3.80
2022-10-23T10:33:30.810Z,4.93
2022-10-23T10:36:04.802Z,4.22
2022-10-23T10:38:50.526Z,5.77
2022-10-23T10:41:56.045Z,5.50
2022-10-23T10:44:32.691Z,5.53
2022-10-23T10:47:29.772Z,6.82
2022-10-23T10:50:19.647Z,8.13
2022-10-23T10:53:02.637Z,10.27
2022-10-23T10:55:34.352Z,13.62
2022-10-23T10:58:11.362Z,15.05
2022-10-23T11:00:39.134Z,12.18
2022-10-23T11:03:44.937Z,16.50
2022-10-23T11:06:16.172Z,18.20
2022-10-23T11:08:57.153Z,20.58
2022-10-23T11:11:35.341Z,13.82
2022-10-23T11:14:02.962Z,18.15
2022-10-23T11:16:40.074Z,22.65
2022-10-23T11:19:16.527Z,20.50
2022-10-23T11:22:05.286Z,19.95
2022-10-23T11:24:58.429Z,20.50
2022-10-23T11:27:32.247Z,14.27
2022-10-23T11:30:13.129Z,18.67
2022-10-23T11:32:59.695Z,13.75
2022-10-23T11:35:45.406Z,15.65
2022-10-23T11:38:13.003Z,15.93
2022-10-23T11:40:46.307Z,13.73
2022-10-23T11:43:14.147Z,10.55
2022-10-23T11:45:42.240Z,10.75
2022-10-23T11:48:35.725Z,10.27
2022-10-23T11:51:05.188Z,11.35
2022-10-23T11:53:32.762Z,5.80
2022-10-23T11:56:04.315Z,5.53
2022-10-23T11:58:42.518Z,9.10
2022-10-23T12:01:28.878Z,7.68
2022-10-23T12:04:14.311Z,6.03
2022-10-23T12:06:51.042Z,4.70
2022-10-23T12:09:43.398Z,5.70
2022-10-23T12:12:10.848Z,5.78
2022-10-23T12:14:39.869Z,5.72
2022-10-23T12:17:23.969Z,6.85
2022-10-23T12:20:15.985Z,6.18
2022-10-23T12:23:20.995Z,7.12
2022-10-23T12:26:12.651Z,6.75
2022-10-23T12:28:51.361Z,6.90
2022-10-23T12:31:48.808Z,5.78
2022-10-23T12:34:38.542Z,8.70
2022-10-23T12:37:21.571Z,9.20
2022-10-23T12:39:56.514Z,7.53
2022-10-23T12:45:19.278Z,6.60
2022-10-23T12:47:47.637Z,5.53
2022-10-23T12:50:29.776Z,4.43
2022-10-23T12:53:05.995Z,4.97
2022-10-23T12:55:49.091Z,5.05
2022-10-23T12:58:24.497Z,4.68
2022-10-23T13:00:57.396Z,4.40
2022-10-23T13:03:26.498Z,9.45
2022-10-23T13:05:56.075Z,6.53
2022-10-23T13:08:23.742Z,5.57
2022-10-23T13:11:01.265Z,7.00
2022-10-23T13:13:29.244Z,4.60
2022-10-23T13:15:56.949Z,6.25
2022-10-23T13:18:24.798Z,4.70
2022-10-23T13:20:52.289Z,7.45
2022-10-23T13:23:28.845Z,7.95
2022-10-23T13:25:59.082Z,4.87
2022-10-23T13:28:41.232Z,6.07
2022-10-23T13:31:15.168Z,5.93
2022-10-23T13:33:51.015Z,4.97
2022-10-23T13:36:23.804Z,5.05
2022-10-23T13:39:03.830Z,6.07
2022-10-23T13:41:40.798Z,5.65
2022-10-23T13:44:11.548Z,6.43
2022-10-23T13:46:39.519Z,6.90
2022-10-23T13:49:07.154Z,6.25
2022-10-23T13:51:42.495Z,6.32
2022-10-23T13:54:15.653Z,6.30
2022-10-23T13:56:43.252Z,5.93
2022-10-23T13:59:12.548Z,4.62
2022-10-23T14:01:40.623Z,5.50
2022-10-23T14:04:09.423Z,6.12
2022-10-23T14:06:38.251Z,5.55
2022-10-23T14:09:07.227Z,6.70
2022-10-23T14:11:35.177Z,5.35
2022-10-23T14:14:02.769Z,6.70
2022-10-23T14:16:30.547Z,7.35
2022-10-23T14:18:58.576Z,6.95
2022-10-23T14:21:26.131Z,7.35
2022-10-23T14:23:54.158Z,8.82
2022-10-23T14:26:24.946Z,7.53
2022-10-23T14:28:55.837Z,9.30
2022-10-23T14:31:24.110Z,5.60
2022-10-23T14:33:55.970Z,7.50
2022-10-23T14:36:24.598Z,5.75
2022-10-23T14:38:57.678Z,8.40
2022-10-23T14:41:27.153Z,9.98
2022-10-23T14:43:54.848Z,6.85
2022-10-23T14:46:24.334Z,7.32
2022-10-23T14:48:54.955Z,5.65
2022-10-23T14:51:28.230Z,7.07
2022-10-23T14:53:59.566Z,8.75
2022-10-23T14:56:28.350Z,8.45
2022-10-23T14:59:02.663Z,7.93
2022-10-23T15:01:31.989Z,5.87
2022-10-23T15:04:00.918Z,9.20
2022-10-23T15:06:28.518Z,22.75
2022-10-23T15:08:56.023Z,34.10
2022-10-23T15:11:24.519Z,11.50
2022-10-23T15:13:52.927Z,11.50
2022-10-23T15:16:22.204Z,13.90
2022-10-23T15:18:50.065Z,9.57
2022-10-23T15:21:17.903Z,7.65
2022-10-23T15:23:46.327Z,7.28
2022-10-23T15:26:22.869Z,5.05
2022-10-23T15:28:58.900Z,7.95
2022-10-23T15:31:29.815Z,6.97
2022-10-23T15:33:57.902Z,16.27
2022-10-23T15:36:26.746Z,12.30
2022-10-23T15:38:54.988Z,9.80
2022-10-23T15:41:27.876Z,8.68
2022-10-23T15:43:55.908Z,7.62
2022-10-23T15:46:23.350Z,7.87
2022-10-23T15:48:51.374Z,9.10
2022-10-23T15:51:20.015Z,7.43
2022-10-23T15:53:47.481Z,11.10
2022-10-23T15:56:15.152Z,9.48
2022-10-23T15:58:43.285Z,9.63
2022-10-23T16:01:10.960Z,7.55
2022-10-23T16:03:39.188Z,7.15
2022-10-23T16:06:09.104Z,7.72
2022-10-23T16:08:37.286Z,7.95
2022-10-23T16:11:13.967Z,5.85
2022-10-23T16:13:42.896Z,4.75
2022-10-23T16:16:11.039Z,5.70
2022-10-23T16:18:38.825Z,5.60
2022-10-23T16:21:07.534Z,6.47
2022-10-23T16:23:35.389Z,8.02
2022-10-23T16:26:05.166Z,5.75
2022-10-23T16:28:33.219Z,5.55
2022-10-23T16:31:02.289Z,6.47
2022-10-23T16:33:29.794Z,5.78
2022-10-23T16:36:03.232Z,5.28
2022-10-23T16:38:32.053Z,4.47
2022-10-23T16:41:02.454Z,4.80
2022-10-23T16:43:35.522Z,5.47
2022-10-23T16:46:11.879Z,6.22
2022-10-23T16:51:14.823Z,5.90
2022-10-23T16:53:44.503Z,5.75
2022-10-23T16:56:15.325Z,5.50
2022-10-23T16:58:43.536Z,5.32
2022-10-23T17:01:19.611Z,6.18
2022-10-23T17:03:49.686Z,5.65
2022-10-23T17:06:23.776Z,5.65
2022-10-23T17:08:51.941Z,4.62
2022-10-23T17:11:25.203Z,4.93
2022-10-23T17:13:58.670Z,5.30
2022-10-23T17:16:28.631Z,6.57
2022-10-23T17:18:57.487Z,5.75
2022-10-23T17:21:25.190Z,6.43
2022-10-23T17:23:52.964Z,5.43
2022-10-23T17:26:22.185Z,7.47
2022-10-23T17:28:50.044Z,7.18
2022-10-23T17:31:21.805Z,6.50
2022-10-23T17:33:52.197Z,7.70
2022-10-23T17:36:21.297Z,8.60
2022-10-23T17:38:49.565Z,7.78
2022-10-23T17:41:18.731Z,6.65
2022-10-23T17:43:46.760Z,6.62
2022-10-23T17:46:15.625Z,7.43
2022-10-23T17:48:43.700Z,7.62
2022-10-23T17:51:16.558Z,6.82
2022-10-23T17:53:47.199Z,7.80
2022-10-23T17:56:20.288Z,5.62
2022-10-23T17:58:53.172Z,8.25
2022-10-23T18:01:25.069Z,7.55
2022-10-23T18:03:54.356Z,6.90
2022-10-23T18:06:29.660Z,7.40
2022-10-23T18:08:59.730Z,6.75
2022-10-23T18:11:29.877Z,5.43
2022-10-23T18:16:28.191Z,4.78
2022-10-23T18:18:56.270Z,6.15
2022-10-23T18:21:24.955Z,7.28
2022-10-23T18:23:52.818Z,5.32
2022-10-23T18:26:23.514Z,5.97
2022-10-23T18:28:53.503Z,5.65
2022-10-23T18:31:21.224Z,4.82
2022-10-23T18:33:48.906Z,5.35
2022-10-23T18:36:20.709Z,6.03
2022-10-23T18:38:49.810Z,5.03
2022-10-23T18:41:19.026Z,5.62
2022-10-23T18:43:46.665Z,4.78
2022-10-23T18:46:14.632Z,8.25
2022-10-23T18:48:43.572Z,6.20
2022-10-23T18:51:19.949Z,6.72
2022-10-23T18:53:51.318Z,5.72
2022-10-23T18:56:22.962Z,5.78
2022-10-23T18:58:55.127Z,5.97
2022-10-23T19:01:24.879Z,3.95
2022-10-23T19:03:53.599Z,4.25
2022-10-23T19:06:22.371Z,5.57
2022-10-23T19:08:50.334Z,5.53
2022-10-23T19:11:20.495Z,4.62
2022-10-23T19:13:48.309Z,5.50
2022-10-23T19:16:47.103Z,4.68
2022-10-23T19:19:26.767Z,4.65
2022-10-23T19:21:54.849Z,5.28
2022-10-23T19:24:34.414Z,5.12
2022-10-23T19:27:02.721Z,4.22
2022-10-23T19:29:30.887Z,6.45
2022-10-23T19:31:58.623Z,4.43
2022-10-23T19:34:26.530Z,5.20
2022-10-23T19:36:55.284Z,6.12
2022-10-23T19:39:23.291Z,4.65
2022-10-23T19:41:51.715Z,4.95
2022-10-23T19:44:20.627Z,3.78
2022-10-23T19:46:48.798Z,4.65
2022-10-23T19:49:17.257Z,3.80
2022-10-23T19:51:50.934Z,5.65
2022-10-23T19:54:20.432Z,4.87
2022-10-23T19:56:48.689Z,4.12
2022-10-23T19:59:16.595Z,4.95
2022-10-23T20:01:47.760Z,5.60
2022-10-23T20:04:18.331Z,5.10
2022-10-23T20:06:46.663Z,4.50
2022-10-23T20:09:14.342Z,5.87
2022-10-23T20:11:43.492Z,8.82
2022-10-23T20:14:11.709Z,5.40
2022-10-23T20:16:39.869Z,6.80
2022-10-23T20:19:09.628Z,4.82
2022-10-23T20:21:38.776Z,5.45
2022-10-23T20:24:06.895Z,6.18
2022-10-23T20:26:34.965Z,5.10
2022-10-23T20:29:02.584Z,7.18
2022-10-23T20:31:30.269Z,7.03
2022-10-23T20:33:58.156Z,6.97
2022-10-23T20:36:27.409Z,6.20
2022-10-23T20:38:55.695Z,5.18
2022-10-23T20:41:25.038Z,7.05
2022-10-23T20:43:53.002Z,8.05
2022-10-23T20:46:20.615Z,7.32
2022-10-23T20:48:48.643Z,7.07
2022-10-23T20:51:18.347Z,5.35
2022-10-23T20:53:46.192Z,5.65
2022-10-23T20:56:33.825Z,6.87
2022-10-23T20:59:04.571Z,7.25
2022-10-23T21:01:33.429Z,7.10
2022-10-23T21:04:02.659Z,6.90
2022-10-23T21:06:51.502Z,5.47
2022-10-23T21:09:20.337Z,7.57
2022-10-23T21:11:47.790Z,8.10
2022-10-23T21:14:15.246Z,6.15
2022-10-23T21:16:44.622Z,6.62
2022-10-23T21:19:14.679Z,5.82
2022-10-23T21:21:42.722Z,3.92
2022-10-23T21:24:14.058Z,3.85
2022-10-23T21:26:41.739Z,5.78
2022-10-23T21:29:25.015Z,4.68
2022-10-23T21:31:57.976Z,4.85
2022-10-23T21:34:26.256Z,5.93
2022-10-23T21:37:11.905Z,5.85
2022-10-23T21:39:41.755Z,6.57
2022-10-23T21:42:10.291Z,7.25
2022-10-23T21:44:37.733Z,7.05
2022-10-23T21:47:05.513Z,6.75
2022-10-23T21:49:33.268Z,5.20
2022-10-23T21:52:00.744Z,7.47
2022-10-23T21:54:28.222Z,5.72
2022-10-23T21:56:56.022Z,6.65
2022-10-23T21:59:27.596Z,5.35
2022-10-23T22:01:57.877Z,5.20
2022-10-23T22:04:25.940Z,5.95
2022-10-23T22:06:53.665Z,5.05
2022-10-23T22:09:22.046Z,4.87
2022-10-23T22:11:50.874Z,5.82
2022-10-23T22:14:18.406Z,7.87
2022-10-23T22:16:46.656Z,6.03
2022-10-23T22:19:16.299Z,7.87
2022-10-23T22:21:44.126Z,5.47
2022-10-23T22:24:11.840Z,4.70
2022-10-23T22:26:42.588Z,5.50
2022-10-23T22:29:22.576Z,7.22
2022-10-23T22:31:50.610Z,6.35
2022-10-23T22:34:48.313Z,6.03
2022-10-23T22:37:14.481Z,5.68
2022-10-23T22:39:42.257Z,4.97
2022-10-23T22:42:09.808Z,6.97
2022-10-23T22:44:37.584Z,6.07
2022-10-23T22:47:05.140Z,4.40
2022-10-23T22:49:32.629Z,4.32
2022-10-23T22:52:00.340Z,6.45
2022-10-23T22:54:27.877Z,6.43
2022-10-23T22:56:55.294Z,5.18
2022-10-23T22:59:22.965Z,3.53
2022-10-23T23:01:50.531Z,4.90
2022-10-23T23:07:07.875Z,3.95
2022-10-23T23:09:40.137Z,5.20
2022-10-23T23:12:09.010Z,5.47
2022-10-23T23:14:36.869Z,5.18
2022-10-23T23:17:05.017Z,6.12
2022-10-23T23:19:33.043Z,5.72
2022-10-23T23:22:01.081Z,5.65
2022-10-23T23:24:28.644Z,6.28
2022-10-23T23:26:56.319Z,6.12
2022-10-23T23:29:23.792Z,6.53
2022-10-23T23:31:51.368Z,5.87
2022-10-23T23:34:20.068Z,3.90
2022-10-23T23:36:47.547Z,4.70
2022-10-23T23:39:14.980Z,4.60
2022-10-23T23:41:42.812Z,5.40
2022-10-23T23:44:10.367Z,5.55
2022-10-23T23:46:38.189Z,6.15
2022-10-23T23:49:05.907Z,5.55
2022-10-23T23:51:33.399Z,6.62
2022-10-23T23:54:00.878Z,5.78
2022-10-23T23:56:28.655Z,5.43
2022-10-23T23:58:57.708Z,5.50
